createdAt,value
2023-04-08T00:00:03.848Z,5.59
2023-04-08T00:02:37.296Z,5.69
2023-04-08T00:05:05.196Z,5.53
2023-04-08T00:07:32.177Z,5.31
2023-04-08T00:09:59.298Z,5.33
2023-04-08T00:12:26.275Z,5.39
2023-04-08T00:14:53.178Z,5.31
2023-04-08T00:17:20.103Z,5.37
2023-04-08T00:19:47.024Z,5.42
2023-04-08T00:22:13.895Z,5.39
2023-04-08T00:24:40.932Z,5.03
2023-04-08T00:27:07.769Z,5.08
2023-04-08T00:29:34.779Z,4.98
2023-04-08T00:32:01.734Z,5.08
2023-04-08T00:34:28.847Z,5.04
2023-04-08T00:36:55.753Z,4.75
2023-04-08T00:39:22.714Z,5.05
2023-04-08T00:41:49.603Z,4.86
2023-04-08T00:44:16.616Z,4.58
2023-04-08T00:46:44.188Z,4.77
2023-04-08T00:49:11.164Z,4.68
2023-04-08T00:51:38.017Z,4.53
2023-04-08T00:54:05.358Z,4.54
2023-04-08T00:56:33.206Z,4.30
2023-04-08T00:59:03.265Z,4.51
2023-04-08T01:01:43.736Z,4.49
2023-04-08T01:04:17.792Z,4.28
2023-04-08T01:06:50.166Z,4.37
2023-04-08T01:09:23.798Z,4.30
2023-04-08T01:11:52.512Z,4.31
2023-04-08T01:14:26.701Z,3.99
2023-04-08T01:16:57.041Z,4.03
2023-04-08T01:19:34.679Z,4.02
2023-04-08T01:22:13.768Z,3.96
2023-04-08T01:24:44.327Z,4.10
2023-04-08T01:27:14.193Z,3.98
2023-04-08T01:29:43.725Z,3.93
2023-04-08T01:32:12.158Z,3.99
2023-04-08T01:34:41.834Z,3.99
2023-04-08T01:37:09.231Z,3.91
2023-04-08T01:39:38.796Z,3.92
2023-04-08T01:42:06.011Z,4.10
2023-04-08T01:44:33.368Z,4.02
2023-04-08T01:47:01.080Z,3.85
2023-04-08T01:49:30.595Z,3.86
2023-04-08T01:51:59.092Z,3.82
2023-04-08T01:54:26.040Z,3.68
2023-04-08T01:56:55.502Z,3.72
2023-04-08T01:59:24.724Z,3.75
2023-04-08T02:01:52.808Z,3.79
2023-04-08T02:04:20.235Z,3.63
2023-04-08T02:06:47.341Z,3.73
2023-04-08T02:09:14.270Z,3.57
2023-04-08T02:11:41.144Z,3.68
2023-04-08T02:14:08.158Z,3.65
2023-04-08T02:16:49.270Z,3.73
2023-04-08T02:19:25.945Z,3.52
2023-04-08T02:21:57.268Z,3.42
2023-04-08T02:24:27.668Z,3.71
2023-04-08T02:26:59.227Z,3.71
2023-04-08T02:29:29.957Z,3.78
2023-04-08T02:31:57.899Z,3.85
2023-04-08T02:34:26.118Z,3.85
2023-04-08T02:36:54.261Z,3.59
2023-04-08T02:39:21.271Z,3.74
2023-04-08T02:41:49.999Z,3.45
2023-04-08T02:44:16.818Z,3.82
2023-04-08T02:46:46.018Z,4.11
2023-04-08T02:49:12.879Z,4.47
2023-04-08T02:51:39.757Z,4.75
2023-04-08T02:54:06.676Z,4.86
2023-04-08T02:56:33.881Z,5.40
2023-04-08T02:59:00.672Z,5.87
2023-04-08T03:01:27.573Z,6.07
2023-04-08T03:03:54.585Z,6.86
2023-04-08T03:06:21.431Z,7.69
2023-04-08T03:08:48.509Z,8.12
2023-04-08T03:11:15.803Z,8.93
2023-04-08T03:13:42.675Z,9.03
2023-04-08T03:16:09.561Z,9.70
2023-04-08T03:18:36.439Z,10.01
2023-04-08T03:21:03.398Z,10.54
2023-04-08T03:23:30.223Z,11.28
2023-04-08T03:25:57.087Z,11.63
2023-04-08T03:28:23.987Z,12.34
2023-04-08T03:30:51.069Z,12.61
2023-04-08T03:33:17.995Z,12.60
2023-04-08T03:35:44.965Z,13.05
2023-04-08T03:38:11.806Z,13.67
2023-04-08T03:40:38.665Z,14.37
2023-04-08T03:43:05.616Z,14.75
2023-04-08T03:45:32.484Z,14.22
2023-04-08T03:47:59.406Z,14.90
2023-04-08T03:50:26.806Z,14.86
2023-04-08T03:52:54.195Z,15.76
2023-04-08T03:55:21.272Z,15.52
2023-04-08T03:57:48.138Z,15.77
2023-04-08T04:00:15.309Z,15.80
2023-04-08T04:02:45.024Z,16.02
2023-04-08T04:05:12.092Z,15.56
2023-04-08T04:07:39.329Z,15.56
2023-04-08T04:10:06.696Z,14.94
2023-04-08T04:12:33.611Z,14.84
2023-04-08T04:15:01.123Z,15.21
2023-04-08T04:17:28.098Z,14.91
2023-04-08T04:19:55.064Z,14.61
2023-04-08T04:22:21.932Z,14.45
2023-04-08T04:24:49.388Z,14.01
2023-04-08T04:27:16.596Z,14.10
2023-04-08T04:29:43.990Z,13.87
2023-04-08T04:32:12.266Z,13.84
2023-04-08T04:34:39.354Z,13.08
2023-04-08T04:37:06.233Z,12.55
2023-04-08T04:39:33.193Z,12.66
2023-04-08T04:42:00.066Z,12.75
2023-04-08T04:44:26.894Z,12.43
2023-04-08T04:46:53.990Z,12.46
2023-04-08T04:49:20.899Z,12.36
2023-04-08T04:51:47.694Z,12.40
2023-04-08T04:54:14.844Z,11.96
2023-04-08T04:56:41.702Z,11.35
2023-04-08T04:59:08.673Z,11.66
2023-04-08T05:01:36.185Z,11.57
2023-04-08T05:04:03.166Z,11.64
2023-04-08T05:06:30.353Z,11.02
2023-04-08T05:08:57.634Z,11.22
2023-04-08T05:11:24.760Z,11.32
2023-04-08T05:13:51.671Z,11.20
2023-04-08T05:16:18.659Z,10.71
2023-04-08T05:18:45.807Z,10.70
2023-04-08T05:21:12.732Z,10.51
2023-04-08T05:23:42.765Z,10.61
2023-04-08T05:26:09.833Z,10.48
2023-04-08T05:28:36.772Z,10.77
2023-04-08T05:31:06.209Z,10.93
2023-04-08T05:33:33.046Z,11.08
2023-04-08T05:35:59.949Z,11.28
2023-04-08T05:38:26.887Z,10.81
2023-04-08T05:40:53.750Z,11.40
2023-04-08T05:43:20.626Z,11.50
2023-04-08T05:45:47.574Z,11.31
2023-04-08T05:48:16.486Z,11.25
2023-04-08T05:50:43.477Z,11.36
2023-04-08T05:53:10.594Z,11.20
2023-04-08T05:55:37.506Z,11.53
2023-04-08T05:58:04.403Z,11.82
2023-04-08T06:00:31.299Z,12.02
2023-04-08T06:02:58.362Z,12.01
2023-04-08T06:05:25.328Z,12.22
2023-04-08T06:07:52.262Z,11.80
2023-04-08T06:10:19.247Z,12.47
2023-04-08T06:12:46.141Z,12.63
2023-04-08T06:15:13.003Z,12.55
2023-04-08T06:17:40.071Z,12.42
2023-04-08T06:20:07.271Z,12.25
2023-04-08T06:22:34.345Z,11.87
2023-04-08T06:25:01.200Z,12.14
2023-04-08T06:27:28.399Z,12.32
2023-04-08T06:29:55.533Z,12.09
2023-04-08T06:32:22.628Z,12.24
2023-04-08T06:34:49.708Z,12.31
2023-04-08T06:37:16.611Z,12.32
2023-04-08T06:39:46.425Z,12.71
2023-04-08T06:42:13.343Z,12.73
2023-04-08T06:45:03.058Z,12.54
2023-04-08T06:47:29.989Z,12.27
2023-04-08T06:49:56.793Z,12.61
2023-04-08T06:52:23.843Z,12.77
2023-04-08T06:54:51.109Z,12.74
2023-04-08T06:57:36.447Z,13.06
2023-04-08T07:00:22.093Z,13.27
2023-04-08T07:02:49.245Z,12.89
2023-04-08T07:05:16.212Z,13.02
2023-04-08T07:07:43.206Z,12.79
2023-04-08T07:10:11.199Z,12.97
2023-04-08T07:12:38.523Z,12.75
2023-04-08T07:15:05.998Z,12.72
2023-04-08T07:17:32.996Z,13.09
2023-04-08T07:20:18.561Z,13.12
2023-04-08T07:22:45.773Z,12.59
2023-04-08T07:25:12.750Z,12.89
2023-04-08T07:27:39.773Z,13.24
2023-04-08T07:30:07.471Z,13.58
2023-04-08T07:32:35.057Z,13.79
2023-04-08T07:35:20.983Z,13.38
2023-04-08T07:37:49.122Z,13.47
2023-04-08T07:40:16.151Z,13.74
2023-04-08T07:43:01.831Z,12.80
2023-04-08T07:45:28.777Z,12.81
2023-04-08T07:47:55.768Z,13.82
2023-04-08T07:50:22.794Z,13.19
2023-04-08T07:53:08.321Z,12.10
2023-04-08T07:55:35.719Z,12.57
2023-04-08T07:58:02.822Z,12.69
2023-04-08T08:00:30.036Z,12.28
2023-04-08T08:02:57.267Z,12.08
2023-04-08T08:05:24.468Z,12.13
2023-04-08T08:07:51.396Z,12.32
2023-04-08T08:10:18.473Z,12.85
2023-04-08T08:12:45.459Z,12.58
2023-04-08T08:15:12.652Z,12.37
2023-04-08T08:17:39.658Z,12.03
2023-04-08T08:20:07.614Z,11.80
2023-04-08T08:22:36.645Z,12.38
2023-04-08T08:25:09.003Z,12.36
2023-04-08T08:27:36.178Z,13.29
2023-04-08T08:30:06.882Z,13.31
2023-04-08T08:32:33.957Z,13.29
2023-04-08T08:35:00.950Z,13.12
2023-04-08T08:37:27.892Z,12.96
2023-04-08T08:39:54.821Z,14.01
2023-04-08T08:42:23.044Z,14.19
2023-04-08T08:44:50.182Z,14.64
2023-04-08T08:47:17.811Z,14.15
2023-04-08T08:49:45.500Z,13.54
2023-04-08T08:52:16.536Z,13.49
2023-04-08T08:54:44.755Z,13.50
2023-04-08T08:57:21.271Z,13.41
2023-04-08T08:59:48.538Z,13.29
2023-04-08T09:02:35.830Z,13.56
2023-04-08T09:05:04.964Z,13.25
2023-04-08T09:07:36.438Z,13.67
2023-04-08T09:10:04.158Z,13.03
2023-04-08T09:12:31.053Z,13.11
2023-04-08T09:15:04.894Z,12.66
2023-04-08T09:17:37.058Z,12.82
2023-04-08T09:20:05.033Z,13.09
2023-04-08T09:22:32.056Z,14.17
2023-04-08T09:24:59.060Z,13.99
2023-04-08T09:27:35.537Z,13.32
2023-04-08T09:30:15.816Z,13.43
2023-04-08T09:32:49.828Z,13.17
2023-04-08T09:35:21.201Z,13.10
2023-04-08T09:37:49.287Z,13.18
2023-04-08T09:40:16.607Z,13.28
2023-04-08T09:42:48.804Z,13.03
2023-04-08T09:45:17.506Z,12.61
2023-04-08T09:48:05.071Z,12.89
2023-04-08T09:50:36.444Z,12.83
2023-04-08T09:53:34.543Z,13.09
2023-04-08T09:56:06.474Z,13.14
2023-04-08T09:58:51.615Z,13.92
2023-04-08T10:01:42.493Z,13.39
2023-04-08T10:04:14.835Z,13.15
2023-04-08T10:06:42.411Z,13.27
2023-04-08T10:09:10.508Z,13.06
2023-04-08T10:11:37.800Z,13.16
2023-04-08T10:14:04.924Z,13.02
2023-04-08T10:16:32.120Z,12.98
2023-04-08T10:18:59.072Z,13.06
2023-04-08T10:21:39.851Z,12.92
2023-04-08T10:24:11.059Z,13.50
2023-04-08T10:26:47.197Z,12.99
2023-04-08T10:29:19.965Z,13.29
2023-04-08T10:31:50.932Z,13.00
2023-04-08T10:34:18.119Z,13.17
2023-04-08T10:36:45.972Z,12.78
2023-04-08T10:39:14.240Z,12.88
2023-04-08T10:41:48.092Z,13.07
2023-04-08T10:44:20.112Z,12.88
2023-04-08T10:46:48.177Z,12.27
2023-04-08T10:49:17.355Z,12.33
2023-04-08T10:51:45.193Z,12.64
2023-04-08T10:54:14.335Z,12.82
2023-04-08T10:56:52.420Z,12.88
2023-04-08T10:59:45.865Z,12.91
2023-04-08T11:02:15.776Z,12.90
2023-04-08T11:04:42.953Z,13.12
2023-04-08T11:07:09.912Z,12.65
2023-04-08T11:09:37.629Z,13.27
2023-04-08T11:12:04.877Z,13.21
2023-04-08T11:14:31.801Z,13.28
2023-04-08T11:16:58.656Z,13.41
2023-04-08T11:19:25.621Z,13.45
2023-04-08T11:21:53.629Z,13.35
2023-04-08T11:24:21.587Z,13.11
2023-04-08T11:26:48.835Z,12.96
2023-04-08T11:29:15.847Z,13.24
2023-04-08T11:31:44.297Z,12.85
2023-04-08T11:34:12.416Z,12.85
2023-04-08T11:36:42.348Z,12.62
2023-04-08T11:39:12.610Z,12.24
2023-04-08T11:41:40.287Z,12.75
2023-04-08T11:44:08.407Z,13.00
2023-04-08T11:46:35.767Z,13.29
2023-04-08T11:49:05.004Z,13.09
2023-04-08T11:51:32.836Z,13.22
2023-04-08T11:53:59.806Z,13.24
2023-04-08T11:56:27.121Z,13.67
2023-04-08T11:58:54.058Z,13.77
2023-04-08T12:01:20.975Z,14.13
2023-04-08T12:04:02.004Z,13.66
2023-04-08T12:06:32.770Z,13.96
2023-04-08T12:08:59.657Z,14.13
2023-04-08T12:11:27.977Z,14.22
2023-04-08T12:13:54.838Z,14.41
2023-04-08T12:16:21.701Z,14.70
2023-04-08T12:18:48.661Z,14.89
2023-04-08T12:21:15.550Z,15.33
2023-04-08T12:23:42.747Z,15.18
2023-04-08T12:26:09.966Z,14.69
2023-04-08T12:28:36.875Z,14.72
2023-04-08T12:31:04.102Z,14.54
2023-04-08T12:33:31.156Z,14.33
2023-04-08T12:35:58.582Z,13.81
2023-04-08T12:38:26.319Z,13.52
2023-04-08T12:40:54.187Z,13.07
2023-04-08T12:43:21.069Z,13.21
2023-04-08T12:45:48.286Z,13.05
2023-04-08T12:48:15.216Z,12.88
2023-04-08T12:50:42.069Z,12.58
2023-04-08T12:53:08.888Z,12.45
2023-04-08T12:55:35.902Z,12.76
2023-04-08T12:58:02.751Z,12.30
2023-04-08T13:00:29.627Z,11.96
2023-04-08T13:02:56.660Z,11.91
2023-04-08T13:05:33.150Z,11.56
2023-04-08T13:08:10.318Z,11.76
2023-04-08T13:10:37.830Z,11.59
2023-04-08T13:13:05.101Z,11.75
2023-04-08T13:15:32.242Z,12.03
2023-04-08T13:17:59.812Z,11.53
2023-04-08T13:20:29.751Z,11.58
2023-04-08T13:22:57.053Z,11.46
2023-04-08T13:25:25.336Z,11.28
2023-04-08T13:27:52.297Z,11.21
2023-04-08T13:30:19.823Z,11.58
2023-04-08T13:32:51.426Z,11.58
2023-04-08T13:35:18.603Z,11.94
2023-04-08T13:37:45.630Z,11.77
2023-04-08T13:40:12.797Z,11.65
2023-04-08T13:42:39.713Z,11.75
2023-04-08T13:45:07.265Z,11.72
2023-04-08T13:47:35.893Z,11.84
2023-04-08T13:50:05.034Z,12.00
2023-04-08T13:52:31.976Z,12.14
2023-04-08T13:54:59.255Z,11.83
2023-04-08T13:57:26.172Z,12.21
2023-04-08T13:59:53.132Z,11.92
2023-04-08T14:02:20.073Z,11.72
2023-04-08T14:04:47.319Z,11.73
2023-04-08T14:07:14.621Z,11.86
2023-04-08T14:09:41.562Z,11.79
2023-04-08T14:12:08.513Z,11.88
2023-04-08T14:14:35.627Z,11.89
2023-04-08T14:17:02.875Z,12.20
2023-04-08T14:19:29.882Z,11.68
2023-04-08T14:21:57.045Z,11.88
2023-04-08T14:24:24.127Z,11.95
2023-04-08T14:26:50.987Z,11.78
2023-04-08T14:29:18.017Z,11.77
2023-04-08T14:31:44.841Z,11.68
2023-04-08T14:34:11.776Z,11.06
2023-04-08T14:36:38.693Z,11.12
2023-04-08T14:39:05.682Z,11.10
2023-04-08T14:41:32.565Z,11.12
2023-04-08T14:43:59.881Z,10.93
2023-04-08T14:46:28.719Z,10.82
2023-04-08T14:48:56.386Z,11.04
2023-04-08T14:51:23.251Z,11.01
2023-04-08T14:53:50.331Z,10.95
2023-04-08T14:56:17.403Z,10.89
2023-04-08T14:58:44.298Z,10.99
2023-04-08T15:01:11.182Z,10.79
2023-04-08T15:03:38.487Z,10.76
2023-04-08T15:06:05.623Z,11.04
2023-04-08T15:08:32.610Z,10.95
2023-04-08T15:10:59.458Z,10.75
2023-04-08T15:13:26.541Z,10.71
2023-04-08T15:15:53.446Z,10.76
2023-04-08T15:18:20.717Z,10.69
2023-04-08T15:20:47.650Z,10.45
2023-04-08T15:23:14.701Z,10.59
2023-04-08T15:25:41.529Z,10.65
2023-04-08T15:28:08.482Z,10.69
2023-04-08T15:30:35.585Z,10.46
2023-04-08T15:33:04.009Z,10.29
2023-04-08T15:35:31.392Z,10.33
2023-04-08T15:37:58.567Z,10.27
2023-04-08T15:40:25.377Z,10.03
2023-04-08T15:42:52.517Z,10.05
2023-04-08T15:45:19.905Z,10.01
2023-04-08T15:47:46.849Z,9.74
2023-04-08T15:50:13.986Z,10.04
2023-04-08T15:52:41.086Z,10.01
2023-04-08T15:55:08.842Z,10.03
2023-04-08T15:57:36.338Z,10.03
2023-04-08T16:00:10.928Z,9.93
2023-04-08T16:02:41.192Z,10.02
2023-04-08T16:05:08.549Z,9.80
2023-04-08T16:07:35.758Z,9.82
2023-04-08T16:10:02.767Z,9.78
2023-04-08T16:12:29.861Z,10.02
2023-04-08T16:14:57.035Z,9.90
2023-04-08T16:17:24.547Z,10.18
2023-04-08T16:19:51.940Z,10.07
2023-04-08T16:22:19.923Z,10.07
2023-04-08T16:24:46.811Z,10.18
2023-04-08T16:27:13.792Z,10.16
2023-04-08T16:29:41.180Z,10.06
2023-04-08T16:32:08.415Z,10.09
2023-04-08T16:34:35.767Z,10.07
2023-04-08T16:37:02.971Z,10.01
2023-04-08T16:39:30.271Z,10.12
2023-04-08T16:41:57.138Z,10.10
2023-04-08T16:44:24.106Z,9.54
2023-04-08T16:46:51.335Z,9.64
2023-04-08T16:49:18.473Z,9.44
2023-04-08T16:51:45.809Z,9.78
2023-04-08T16:54:13.180Z,9.88
2023-04-08T16:56:40.236Z,9.66
2023-04-08T16:59:07.055Z,9.32
2023-04-08T17:01:36.657Z,9.50
2023-04-08T17:04:03.789Z,9.53
2023-04-08T17:06:30.800Z,9.71
2023-04-08T17:09:00.117Z,9.69
2023-04-08T17:11:27.027Z,9.43
2023-04-08T17:13:54.307Z,9.60
2023-04-08T17:16:21.260Z,9.41
2023-04-08T17:18:48.478Z,9.45
2023-04-08T17:21:15.618Z,9.44
2023-04-08T17:23:42.592Z,9.58
2023-04-08T17:26:12.198Z,9.67
2023-04-08T17:28:39.025Z,9.40
2023-04-08T17:31:05.924Z,9.11
2023-04-08T17:33:32.827Z,9.08
2023-04-08T17:36:00.777Z,9.16
2023-04-08T17:38:28.489Z,9.29
2023-04-08T17:40:59.218Z,9.40
2023-04-08T17:43:29.533Z,9.09
2023-04-08T17:46:00.130Z,9.26
2023-04-08T17:48:28.830Z,9.09
2023-04-08T17:51:03.703Z,8.88
2023-04-08T17:53:31.743Z,8.88
2023-04-08T17:56:01.366Z,8.76
2023-04-08T17:58:28.531Z,8.95
2023-04-08T18:00:55.620Z,8.69
2023-04-08T18:03:23.060Z,8.85
2023-04-08T18:06:02.897Z,8.55
2023-04-08T18:08:30.484Z,8.54
2023-04-08T18:10:58.813Z,8.50
2023-04-08T18:13:26.092Z,8.59
2023-04-08T18:15:53.547Z,8.54
2023-04-08T18:18:21.627Z,8.36
2023-04-08T18:20:52.193Z,8.40
2023-04-08T18:23:22.521Z,8.46
2023-04-08T18:25:49.775Z,8.46
2023-04-08T18:28:16.846Z,8.25
2023-04-08T18:30:44.142Z,8.36
2023-04-08T18:33:11.230Z,8.18
2023-04-08T18:35:38.348Z,8.25
2023-04-08T18:38:05.309Z,8.24
2023-04-08T18:40:33.559Z,8.39
2023-04-08T18:43:00.538Z,8.49
2023-04-08T18:45:28.165Z,8.53
2023-04-08T18:47:55.085Z,8.28
2023-04-08T18:50:22.263Z,8.33
2023-04-08T18:52:49.397Z,8.17
2023-04-08T18:55:16.416Z,8.29
2023-04-08T18:57:43.552Z,8.21
2023-04-08T19:00:10.597Z,7.96
2023-04-08T19:02:40.912Z,7.72
2023-04-08T19:05:08.302Z,7.88
2023-04-08T19:07:35.331Z,8.05
2023-04-08T19:10:02.474Z,8.02
2023-04-08T19:12:29.438Z,7.88
2023-04-08T19:14:56.336Z,8.07
2023-04-08T19:17:23.267Z,7.74
2023-04-08T19:19:50.157Z,7.66
2023-04-08T19:22:19.942Z,7.78
2023-04-08T19:24:46.870Z,7.85
2023-04-08T19:27:13.899Z,7.66
2023-04-08T19:29:40.801Z,8.06
2023-04-08T19:32:07.640Z,7.86
2023-04-08T19:34:38.493Z,7.92
2023-04-08T19:37:05.896Z,7.97
2023-04-08T19:39:32.738Z,8.16
2023-04-08T19:41:59.651Z,7.96
2023-04-08T19:44:26.510Z,7.95
2023-04-08T19:46:53.482Z,7.95
2023-04-08T19:49:20.778Z,7.92
2023-04-08T19:51:47.717Z,8.17
2023-04-08T19:54:14.647Z,8.14
2023-04-08T19:56:41.665Z,7.93
2023-04-08T19:59:08.561Z,8.32
2023-04-08T20:01:35.787Z,8.39
2023-04-08T20:04:02.936Z,8.39
2023-04-08T20:06:29.969Z,8.17
2023-04-08T20:08:56.942Z,8.16
2023-04-08T20:11:23.834Z,8.37
2023-04-08T20:13:50.706Z,8.55
2023-04-08T20:16:17.913Z,8.49
2023-04-08T20:18:44.713Z,8.48
2023-04-08T20:21:11.675Z,8.53
2023-04-08T20:23:38.510Z,8.55
2023-04-08T20:26:05.459Z,8.50
2023-04-08T20:28:32.367Z,8.42
2023-04-08T20:30:59.350Z,8.59
2023-04-08T20:33:26.171Z,8.48
2023-04-08T20:35:53.326Z,8.42
2023-04-08T20:38:20.251Z,8.43
2023-04-08T20:40:47.466Z,8.36
2023-04-08T20:43:14.390Z,8.43
2023-04-08T20:45:41.278Z,8.70
2023-04-08T20:48:08.349Z,8.82
2023-04-08T20:50:35.412Z,8.68
2023-04-08T20:53:02.308Z,8.40
2023-04-08T20:55:29.276Z,8.70
2023-04-08T20:57:56.304Z,8.85
2023-04-08T21:00:23.293Z,8.89
2023-04-08T21:02:50.360Z,8.65
2023-04-08T21:05:17.498Z,8.81
2023-04-08T21:07:44.488Z,8.81
2023-04-08T21:10:11.874Z,8.95
2023-04-08T21:12:38.726Z,9.02
2023-04-08T21:15:06.218Z,9.00
2023-04-08T21:17:33.113Z,9.13
2023-04-08T21:20:00.282Z,9.23
2023-04-08T21:22:27.155Z,9.23
2023-04-08T21:24:54.857Z,9.19
2023-04-08T21:27:21.759Z,9.25
2023-04-08T21:29:54.644Z,9.35
2023-04-08T21:32:21.562Z,9.29
2023-04-08T21:34:48.436Z,9.38
2023-04-08T21:37:15.385Z,9.40
2023-04-08T21:39:42.268Z,9.36
2023-04-08T21:42:09.186Z,9.39
2023-04-08T21:44:36.060Z,9.51
2023-04-08T21:47:03.084Z,9.45
2023-04-08T21:49:29.934Z,9.46
2023-04-08T21:51:56.937Z,9.48
2023-04-08T21:54:23.869Z,9.69
2023-04-08T21:56:50.836Z,9.68
2023-04-08T21:59:17.733Z,9.76
2023-04-08T22:01:44.925Z,9.66
2023-04-08T22:04:12.000Z,9.62
2023-04-08T22:06:39.018Z,9.66
2023-04-08T22:09:05.871Z,9.70
2023-04-08T22:11:32.950Z,9.77
2023-04-08T22:13:59.824Z,9.71
2023-04-08T22:16:26.899Z,9.65
2023-04-08T22:18:54.069Z,9.81
2023-04-08T22:21:21.315Z,9.75
2023-04-08T22:23:48.221Z,9.72
2023-04-08T22:26:15.801Z,9.78
2023-04-08T22:28:42.963Z,9.72
2023-04-08T22:31:11.316Z,9.65
2023-04-08T22:33:39.135Z,9.75
2023-04-08T22:36:06.484Z,9.78
2023-04-08T22:38:33.510Z,9.78
2023-04-08T22:41:00.443Z,9.72
2023-04-08T22:43:27.351Z,9.78
2023-04-08T22:45:54.377Z,9.84
2023-04-08T22:48:21.301Z,9.82
2023-04-08T22:50:48.217Z,9.86
2023-04-08T22:53:15.080Z,9.77
2023-04-08T22:55:41.993Z,9.84
2023-04-08T22:58:08.820Z,9.68
2023-04-08T23:00:35.771Z,9.90
2023-04-08T23:03:02.653Z,9.63
2023-04-08T23:05:29.931Z,9.70
2023-04-08T23:07:56.819Z,9.80
2023-04-08T23:10:23.725Z,9.88
2023-04-08T23:12:50.558Z,9.84
2023-04-08T23:15:17.616Z,9.43
2023-04-08T23:17:44.434Z,9.61
2023-04-08T23:20:11.967Z,9.58
2023-04-08T23:22:38.870Z,9.66
2023-04-08T23:25:06.506Z,9.62
2023-04-08T23:27:33.317Z,9.66
2023-04-08T23:30:00.213Z,9.53
2023-04-08T23:32:27.155Z,9.51
2023-04-08T23:34:54.160Z,9.60
2023-04-08T23:37:21.108Z,9.62
2023-04-08T23:39:48.124Z,9.61
2023-04-08T23:42:14.994Z,9.41
2023-04-08T23:44:41.932Z,9.67
2023-04-08T23:47:09.082Z,9.75
2023-04-08T23:49:35.952Z,9.46
2023-04-08T23:52:02.822Z,9.48
2023-04-08T23:54:29.743Z,9.42
2023-04-08T23:56:56.862Z,9.46
2023-04-08T23:59:23.812Z,9.41
